Tuesday, January 22, 2019, 3:57 PM EST
Back to Local

KJYO, Leesburg / Godfrey

Location: Leesburg, VA, United States Lat: 39.083
Local Time: 3:57 PM EST (20:57 GMT) Lon: -77.567
Time Zone: US/Eastern Elev: 390 ft

Show me the last for .
Show Coded

Time T Td Feel RH Dir Speed Gust Alt SLP Vis Weather Sky Remarks
2019-01-22 15:35 32 9 24 36 170° 9 - 30.61 - 10 CLR None
2019-01-22 15:15 32 9 23 36 180° 13 - 30.61 - 10 CLR None
2019-01-22 14:55 32 10 24 39 180° 9 - 30.61 - 10 CLR None
2019-01-22 14:35 32 10 24 39 190° 9 - 30.62 - 10 CLR None
2019-01-22 14:15 32 9 25 36 170° 8 - 30.63 - 10 CLR None
2019-01-22 13:55 32 9 25 36 180° 8 - 30.64 - 10 CLR None
2019-01-22 13:35 32 9 26 36 190° 6 - 30.64 - 10 CLR None
2019-01-22 13:15 30 9 - 39 - Calm - 30.66 - 10 CLR None
2019-01-22 12:55 30 9 24 39 220° 6 - 30.68 - 10 CLR None
2019-01-22 12:35 28 9 22 42 170° 6 - 30.69 - 10 CLR None
2019-01-22 12:15 28 7 - 39 - Calm - 30.71 - 10 CLR None
2019-01-22 11:55 28 7 - 39 - Calm - 30.71 - 10 CLR None
2019-01-22 11:35 27 7 - 42 - Calm - 30.72 - 10 CLR None
2019-01-22 11:15 27 9 - 45 - Calm - 30.73 - 10 CLR None
2019-01-22 10:55 27 9 - 45 - Calm - 30.74 - 10 CLR None
2019-01-22 10:35 25 9 - 49 - Calm - 30.74 - 10 CLR None
2019-01-22 10:15 23 9 - 53 - Calm - 30.74 - 10 CLR None
2019-01-22 09:55 21 9 16 57 340° 3 - 30.73 - 10 CLR None
2019-01-22 09:35 21 9 15 57 340° 5 - 30.73 - 10 CLR None
2019-01-22 09:15 21 9 14 57 340° 6 - 30.73 - 10 CLR None
2019-01-22 08:55 19 9 13 62 340° 5 - 30.73 - 10 CLR None
2019-01-22 08:35 18 9 8 67 320° 7 - 30.73 - 10 CLR None
2019-01-22 08:15 18 7 11 61 350° 5 - 30.72 - 10 CLR None
2019-01-22 07:55 16 7 9 66 340° 5 - 30.72 - 10 CLR None
2019-01-22 07:35 14 7 5 72 320° 6 - 30.70 - 10 CLR None
2019-01-22 07:15 14 7 - 72 - Calm - 30.69 - 10 CLR None
2019-01-22 06:55 14 7 - 72 - Calm - 30.69 - 10 CLR None
2019-01-22 06:35 16 7 9 66 10° 5 - 30.68 - 10 CLR None
2019-01-22 06:15 16 5 7 61 360° 6 - 30.67 - 10 CLR None
2019-01-22 05:55 14 7 5 72 330° 6 - 30.67 - 10 CLR None
2019-01-22 05:35 14 7 8 72 330° 3 - 30.67 - 10 CLR None
2019-01-22 05:15 14 7 5 72 320° 6 - 30.68 - 10 CLR None
2019-01-22 04:55 14 5 - 66 - Calm - 30.67 - 10 CLR None
2019-01-22 04:35 14 7 6 72 300° 5 - 30.67 - 10 CLR None
2019-01-22 04:15 14 7 5 72 300° 6 - 30.66 - 10 CLR None
2019-01-22 03:55 14 5 4 66 340° 7 - 30.64 - 10 CLR None
2019-01-22 03:35 16 5 9 61 350° 5 - 30.64 - 10 CLR None
2019-01-22 03:15 16 5 5 61 350° 8 - 30.64 - 10 CLR None
2019-01-22 02:55 16 5 0 61 360° 12 16 30.63 - 10 CLR None
2019-01-22 02:35 16 5 5 61 330° 8 - 30.64 - 10 CLR None
2019-01-22 02:15 16 5 6 61 330° 7 - 30.64 - 10 CLR None
2019-01-22 01:55 14 5 4 66 300° 7 - 30.64 - 10 CLR None
2019-01-22 01:35 14 5 5 66 310° 6 - 30.63 - 10 CLR None
2019-01-22 01:15 16 5 5 61 300° 8 - 30.62 - 10 CLR None
2019-01-22 00:55 16 5 4 61 330° 9 - 30.60 - 10 CLR None
2019-01-22 00:35 16 5 5 61 330° 8 - 30.60 - 10 CLR None
2019-01-22 00:15 16 5 4 61 340° 9 - 30.60 - 10 CLR None
2019-01-21 23:55 16 5 -1 61 310° 7 18 30.60 - 10 CLR None
2019-01-21 23:35 16 5 7 61 310° 6 - 30.60 - 10 CLR None
2019-01-21 23:15 18 5 5 57 320° 12 - 30.59 - 10 CLR None
2019-01-21 22:55 18 5 6 57 330° 10 - 30.59 - 10 CLR None
2019-01-21 22:35 18 5 1 57 340° 14 20 30.58 - 10 CLR None
2019-01-21 22:15 18 5 7 57 340° 8 - 30.57 - 10 CLR None
2019-01-21 21:55 18 5 1 57 330° 15 20 30.56 - 10 CLR None
2019-01-21 21:35 18 5 5 57 330° 12 - 30.56 - 10 CLR None
2019-01-21 21:15 18 5 1 57 320° 14 21 30.56 - 10 CLR None
2019-01-21 20:55 18 5 4 57 320° 14 - 30.56 - 10 CLR None
2019-01-21 20:35 18 5 3 57 310° 9 16 30.55 - 10 CLR None
2019-01-21 20:15 18 5 1 57 320° 15 20 30.53 - 10 CLR None
2019-01-21 19:55 19 5 2 52 320° 16 24 30.53 - 10 CLR None
2019-01-21 19:35 19 5 4 52 320° 9 17 30.53 - 10 CLR None
2019-01-21 19:15 19 5 3 52 310° 15 22 30.51 - 10 CLR None
2019-01-21 18:55 19 5 6 52 310° 14 - 30.50 - 10 CLR None
2019-01-21 18:35 19 5 7 52 310° 12 - 30.49 - 10 CLR None
2019-01-21 18:15 19 5 5 52 320° 12 16 30.47 - 10 CLR None
2019-01-21 17:55 19 3 8 48 330° 10 - 30.46 - 10 CLR None
2019-01-21 17:35 19 3 11 48 340° 6 - 30.46 - 10 CLR None
2019-01-21 17:15 19 3 3 48 310° 12 21 30.44 - 10 CLR None
2019-01-21 16:55 21 3 3 44 330° 22 29 30.43 - 10 CLR None
2019-01-21 16:35 21 3 3 44 320° 20 30 30.41 - 10 CLR None
2019-01-21 16:15 21 5 3 48 320° 15 30 30.41 - 10 CLR None

Support USWX by starting your Amazon purchase here.